Rudd, North Carolina
Current Conditions -  °F | °C
As of 3:05 PM on Sunday 21 Dec 2014 (Local Time) from KBUY Reporting Station
Broken Clouds Broken Clouds  
Wind Chill: 10°   Ceiling: 3000
Heat Index: 10°   Visibility: 10mi
Dew Point:   Wind: 6mph
Humidity: 54%   Direction: 10°N
Pressure: 30.21"   Gusts: NA
Location:  36.2136°N, 79.6775°W
Report Text: KBUY 212005Z AUTO 01005KT 10SM BKN030 BKN050 10/01 A3021 RMK AO2 T01000011
Loading
Personal Weather Stations






























Interactive Weather Map New forecast layout! Learn more

10-Day Weather Forecast

Advertisements
Track Severe Weather on mobile